sensor_id;sensor_type;location;lat;lon;timestamp;P1;durP1;ratioP1;P2;durP2;ratioP2
59474;SDS011;45288;51.136;16.928;2023-08-07T00:01:45;232.90;;;215.63;;
59474;SDS011;45288;51.136;16.928;2023-08-07T00:04:11;219.20;;;202.77;;
59474;SDS011;45288;51.136;16.928;2023-08-07T00:06:37;225.80;;;208.63;;
59474;SDS011;45288;51.136;16.928;2023-08-07T00:09:02;232.00;;;214.03;;
59474;SDS011;45288;51.136;16.928;2023-08-07T00:11:28;243.23;;;225.15;;
59474;SDS011;45288;51.136;16.928;2023-08-07T00:13:54;246.45;;;228.15;;
59474;SDS011;45288;51.136;16.928;2023-08-07T00:16:20;233.30;;;216.02;;
59474;SDS011;45288;51.136;16.928;2023-08-07T00:18:45;235.23;;;217.68;;
59474;SDS011;45288;51.136;16.928;2023-08-07T00:21:11;249.23;;;230.90;;
59474;SDS011;45288;51.136;16.928;2023-08-07T00:23:37;272.50;;;252.20;;
59474;SDS011;45288;51.136;16.928;2023-08-07T00:26:03;285.70;;;264.08;;
59474;SDS011;45288;51.136;16.928;2023-08-07T00:28:28;317.70;;;294.80;;
59474;SDS011;45288;51.136;16.928;2023-08-07T00:30:55;360.15;;;332.92;;
59474;SDS011;45288;51.136;16.928;2023-08-07T00:33:21;331.23;;;306.67;;
59474;SDS011;45288;51.136;16.928;2023-08-07T00:35:48;354.95;;;328.45;;
59474;SDS011;45288;51.136;16.928;2023-08-07T00:38:13;381.08;;;352.80;;
59474;SDS011;45288;51.136;16.928;2023-08-07T00:40:39;372.33;;;344.23;;
59474;SDS011;45288;51.136;16.928;2023-08-07T00:43:05;296.33;;;274.30;;
59474;SDS011;45288;51.136;16.928;2023-08-07T00:45:34;278.48;;;258.33;;
59474;SDS011;45288;51.136;16.928;2023-08-07T00:48:00;274.60;;;253.82;;
59474;SDS011;45288;51.136;16.928;2023-08-07T00:50:26;347.13;;;321.10;;
59474;SDS011;45288;51.136;16.928;2023-08-07T00:52:52;369.33;;;341.43;;
59474;SDS011;45288;51.136;16.928;2023-08-07T00:55:18;315.57;;;292.20;;
59474;SDS011;45288;51.136;16.928;2023-08-07T00:57:44;330.13;;;305.75;;
59474;SDS011;45288;51.136;16.928;2023-08-07T01:00:10;302.88;;;281.13;;
59474;SDS011;45288;51.136;16.928;2023-08-07T01:02:36;280.55;;;260.50;;
59474;SDS011;45288;51.136;16.928;2023-08-07T01:05:02;271.93;;;252.27;;
59474;SDS011;45288;51.136;16.928;2023-08-07T01:07:28;250.57;;;232.55;;
59474;SDS011;45288;51.136;16.928;2023-08-07T01:09:53;228.87;;;211.80;;
59474;SDS011;45288;51.136;16.928;2023-08-07T01:12:23;220.25;;;204.95;;
59474;SDS011;45288;51.136;16.928;2023-08-07T01:15:24;214.40;;;198.43;;
59474;SDS011;45288;51.136;16.928;2023-08-07T01:17:42;216.43;;;200.32;;
59474;SDS011;45288;51.136;16.928;2023-08-07T01:20:09;216.27;;;200.85;;
59474;SDS011;45288;51.136;16.928;2023-08-07T01:22:36;221.57;;;205.45;;
59474;SDS011;45288;51.136;16.928;2023-08-07T01:25:02;220.20;;;204.40;;
59474;SDS011;45288;51.136;16.928;2023-08-07T01:32:34;216.88;;;201.60;;
59474;SDS011;45288;51.136;16.928;2023-08-07T01:35:01;241.43;;;223.45;;
59474;SDS011;45288;51.136;16.928;2023-08-07T01:37:29;252.77;;;234.25;;
59474;SDS011;45288;51.136;16.928;2023-08-07T01:39:57;251.60;;;233.43;;
59474;SDS011;45288;51.136;16.928;2023-08-07T01:42:23;256.50;;;237.57;;
59474;SDS011;45288;51.136;16.928;2023-08-07T01:44:50;266.38;;;246.73;;
59474;SDS011;45288;51.136;16.928;2023-08-07T01:47:16;253.70;;;235.52;;
59474;SDS011;45288;51.136;16.928;2023-08-07T01:49:44;252.60;;;234.15;;
59474;SDS011;45288;51.136;16.928;2023-08-07T01:52:09;252.13;;;233.57;;
59474;SDS011;45288;51.136;16.928;2023-08-07T01:54:36;238.57;;;221.43;;
59474;SDS011;45288;51.136;16.928;2023-08-07T01:57:02;212.98;;;197.27;;
59474;SDS011;45288;51.136;16.928;2023-08-07T01:59:28;209.13;;;193.43;;
59474;SDS011;45288;51.136;16.928;2023-08-07T02:01:53;193.03;;;178.30;;
59474;SDS011;45288;51.136;16.928;2023-08-07T02:04:20;183.13;;;169.43;;
59474;SDS011;45288;51.136;16.928;2023-08-07T02:06:46;183.98;;;170.32;;
59474;SDS011;45288;51.136;16.928;2023-08-07T02:09:11;182.82;;;169.00;;
59474;SDS011;45288;51.136;16.928;2023-08-07T02:11:37;181.07;;;167.13;;
59474;SDS011;45288;51.136;16.928;2023-08-07T02:14:03;180.60;;;167.20;;
59474;SDS011;45288;51.136;16.928;2023-08-07T02:16:29;170.07;;;158.07;;
59474;SDS011;45288;51.136;16.928;2023-08-07T02:18:55;177.63;;;163.77;;
59474;SDS011;45288;51.136;16.928;2023-08-07T02:21:20;174.43;;;161.97;;
59474;SDS011;45288;51.136;16.928;2023-08-07T02:23:46;177.25;;;163.77;;
59474;SDS011;45288;51.136;16.928;2023-08-07T02:26:11;183.27;;;170.03;;
59474;SDS011;45288;51.136;16.928;2023-08-07T02:28:37;181.30;;;167.97;;
59474;SDS011;45288;51.136;16.928;2023-08-07T02:31:02;182.48;;;169.00;;
59474;SDS011;45288;51.136;16.928;2023-08-07T02:33:28;185.35;;;172.25;;
59474;SDS011;45288;51.136;16.928;2023-08-07T02:35:56;186.45;;;172.35;;
59474;SDS011;45288;51.136;16.928;2023-08-07T02:38:22;185.03;;;171.80;;
59474;SDS011;45288;51.136;16.928;2023-08-07T02:40:47;183.52;;;169.48;;
59474;SDS011;45288;51.136;16.928;2023-08-07T02:43:13;187.13;;;172.95;;
59474;SDS011;45288;51.136;16.928;2023-08-07T02:45:39;206.50;;;191.13;;
59474;SDS011;45288;51.136;16.928;2023-08-07T02:48:05;222.13;;;205.63;;
59474;SDS011;45288;51.136;16.928;2023-08-07T02:50:31;216.10;;;200.65;;
59474;SDS011;45288;51.136;16.928;2023-08-07T02:52:58;196.65;;;181.73;;
59474;SDS011;45288;51.136;16.928;2023-08-07T02:55:24;194.73;;;180.20;;
59474;SDS011;45288;51.136;16.928;2023-08-07T02:57:49;188.80;;;174.67;;
59474;SDS011;45288;51.136;16.928;2023-08-07T03:00:15;185.98;;;172.05;;
59474;SDS011;45288;51.136;16.928;2023-08-07T03:02:41;178.52;;;164.50;;
59474;SDS011;45288;51.136;16.928;2023-08-07T03:05:07;173.83;;;160.17;;
59474;SDS011;45288;51.136;16.928;2023-08-07T03:07:33;169.48;;;156.85;;
59474;SDS011;45288;51.136;16.928;2023-08-07T03:09:58;173.77;;;160.20;;
59474;SDS011;45288;51.136;16.928;2023-08-07T03:12:24;179.77;;;166.27;;
59474;SDS011;45288;51.136;16.928;2023-08-07T03:14:50;184.50;;;170.53;;
59474;SDS011;45288;51.136;16.928;2023-08-07T03:17:15;197.63;;;183.30;;
59474;SDS011;45288;51.136;16.928;2023-08-07T03:19:42;189.60;;;175.23;;
59474;SDS011;45288;51.136;16.928;2023-08-07T03:22:08;193.52;;;178.68;;
59474;SDS011;45288;51.136;16.928;2023-08-07T03:24:33;240.77;;;223.43;;
59474;SDS011;45288;51.136;16.928;2023-08-07T03:27:00;231.30;;;213.85;;
59474;SDS011;45288;51.136;16.928;2023-08-07T03:29:25;241.13;;;223.87;;
59474;SDS011;45288;51.136;16.928;2023-08-07T03:31:51;256.88;;;237.48;;
59474;SDS011;45288;51.136;16.928;2023-08-07T03:34:17;252.80;;;234.75;;
59474;SDS011;45288;51.136;16.928;2023-08-07T03:36:44;255.17;;;236.43;;
59474;SDS011;45288;51.136;16.928;2023-08-07T03:39:09;248.23;;;230.37;;
59474;SDS011;45288;51.136;16.928;2023-08-07T03:41:38;208.43;;;192.73;;
59474;SDS011;45288;51.136;16.928;2023-08-07T03:44:05;222.93;;;206.55;;
59474;SDS011;45288;51.136;16.928;2023-08-07T03:46:31;217.68;;;201.52;;
59474;SDS011;45288;51.136;16.928;2023-08-07T03:48:57;214.52;;;198.02;;
59474;SDS011;45288;51.136;16.928;2023-08-07T03:51:24;205.10;;;189.85;;
59474;SDS011;45288;51.136;16.928;2023-08-07T03:53:52;195.75;;;181.35;;
59474;SDS011;45288;51.136;16.928;2023-08-07T03:56:19;201.55;;;187.48;;
59474;SDS011;45288;51.136;16.928;2023-08-07T03:58:45;202.80;;;187.90;;
59474;SDS011;45288;51.136;16.928;2023-08-07T04:01:12;185.68;;;172.25;;
59474;SDS011;45288;51.136;16.928;2023-08-07T04:03:39;185.88;;;172.40;;
59474;SDS011;45288;51.136;16.928;2023-08-07T04:06:05;185.60;;;172.33;;
59474;SDS011;45288;51.136;16.928;2023-08-07T04:08:31;182.40;;;169.43;;
59474;SDS011;45288;51.136;16.928;2023-08-07T04:10:57;193.97;;;178.00;;
59474;SDS011;45288;51.136;16.928;2023-08-07T04:13:24;189.85;;;176.40;;
59474;SDS011;45288;51.136;16.928;2023-08-07T04:15:50;198.70;;;183.93;;
59474;SDS011;45288;51.136;16.928;2023-08-07T04:18:16;190.40;;;176.75;;
59474;SDS011;45288;51.136;16.928;2023-08-07T04:20:42;193.00;;;178.90;;
59474;SDS011;45288;51.136;16.928;2023-08-07T04:23:08;196.83;;;182.07;;
59474;SDS011;45288;51.136;16.928;2023-08-07T04:25:34;193.98;;;179.73;;
59474;SDS011;45288;51.136;16.928;2023-08-07T04:28:00;200.55;;;184.95;;
59474;SDS011;45288;51.136;16.928;2023-08-07T04:30:25;194.63;;;180.60;;
59474;SDS011;45288;51.136;16.928;2023-08-07T04:32:51;199.68;;;185.15;;
59474;SDS011;45288;51.136;16.928;2023-08-07T04:35:17;191.05;;;177.90;;
59474;SDS011;45288;51.136;16.928;2023-08-07T04:37:43;196.50;;;182.07;;
59474;SDS011;45288;51.136;16.928;2023-08-07T04:40:09;198.40;;;184.43;;
59474;SDS011;45288;51.136;16.928;2023-08-07T04:42:35;201.50;;;187.30;;
59474;SDS011;45288;51.136;16.928;2023-08-07T04:45:00;200.67;;;185.53;;
59474;SDS011;45288;51.136;16.928;2023-08-07T04:47:27;200.45;;;185.82;;
59474;SDS011;45288;51.136;16.928;2023-08-07T04:49:53;201.50;;;186.43;;
59474;SDS011;45288;51.136;16.928;2023-08-07T04:52:18;196.52;;;182.52;;
59474;SDS011;45288;51.136;16.928;2023-08-07T04:54:44;195.70;;;180.65;;
59474;SDS011;45288;51.136;16.928;2023-08-07T04:57:10;190.10;;;176.70;;
59474;SDS011;45288;51.136;16.928;2023-08-07T04:59:35;186.97;;;173.77;;
59474;SDS011;45288;51.136;16.928;2023-08-07T05:02:01;190.20;;;176.40;;
59474;SDS011;45288;51.136;16.928;2023-08-07T05:04:27;186.85;;;173.52;;
59474;SDS011;45288;51.136;16.928;2023-08-07T05:06:53;188.88;;;174.90;;
59474;SDS011;45288;51.136;16.928;2023-08-07T05:09:18;162.13;;;150.70;;
59474;SDS011;45288;51.136;16.928;2023-08-07T05:11:44;163.50;;;151.03;;
59474;SDS011;45288;51.136;16.928;2023-08-07T05:14:10;157.65;;;146.27;;
59474;SDS011;45288;51.136;16.928;2023-08-07T05:16:35;166.67;;;155.07;;
59474;SDS011;45288;51.136;16.928;2023-08-07T05:19:01;162.18;;;149.48;;
59474;SDS011;45288;51.136;16.928;2023-08-07T05:21:27;158.40;;;147.50;;
59474;SDS011;45288;51.136;16.928;2023-08-07T05:23:52;134.45;;;123.82;;
59474;SDS011;45288;51.136;16.928;2023-08-07T05:26:21;163.50;;;151.45;;
59474;SDS011;45288;51.136;16.928;2023-08-07T05:28:46;176.02;;;162.45;;
59474;SDS011;45288;51.136;16.928;2023-08-07T05:31:13;194.52;;;180.63;;
59474;SDS011;45288;51.136;16.928;2023-08-07T05:33:39;213.00;;;197.00;;
59474;SDS011;45288;51.136;16.928;2023-08-07T05:36:05;218.50;;;202.67;;
59474;SDS011;45288;51.136;16.928;2023-08-07T05:38:32;223.60;;;208.00;;
59474;SDS011;45288;51.136;16.928;2023-08-07T05:40:57;252.15;;;234.05;;
59474;SDS011;45288;51.136;16.928;2023-08-07T05:43:23;272.83;;;252.93;;
59474;SDS011;45288;51.136;16.928;2023-08-07T05:45:49;275.70;;;255.35;;
59474;SDS011;45288;51.136;16.928;2023-08-07T05:48:14;312.33;;;290.30;;
59474;SDS011;45288;51.136;16.928;2023-08-07T05:50:42;344.13;;;318.33;;
59474;SDS011;45288;51.136;16.928;2023-08-07T05:53:08;261.55;;;243.13;;
59474;SDS011;45288;51.136;16.928;2023-08-07T05:55:34;274.80;;;255.77;;
59474;SDS011;45288;51.136;16.928;2023-08-07T05:57:59;286.20;;;265.57;;
59474;SDS011;45288;51.136;16.928;2023-08-07T06:00:25;294.52;;;273.83;;
59474;SDS011;45288;51.136;16.928;2023-08-07T06:02:51;265.60;;;247.60;;
59474;SDS011;45288;51.136;16.928;2023-08-07T06:05:16;259.90;;;241.40;;
59474;SDS011;45288;51.136;16.928;2023-08-07T06:07:42;248.00;;;230.57;;
59474;SDS011;45288;51.136;16.928;2023-08-07T06:10:08;242.25;;;224.88;;
59474;SDS011;45288;51.136;16.928;2023-08-07T06:12:34;240.97;;;224.83;;
59474;SDS011;45288;51.136;16.928;2023-08-07T06:15:00;252.77;;;233.55;;
59474;SDS011;45288;51.136;16.928;2023-08-07T06:17:25;239.67;;;223.03;;
59474;SDS011;45288;51.136;16.928;2023-08-07T06:19:51;218.30;;;202.55;;
59474;SDS011;45288;51.136;16.928;2023-08-07T06:22:17;242.32;;;225.65;;
59474;SDS011;45288;51.136;16.928;2023-08-07T06:24:43;255.10;;;237.10;;
59474;SDS011;45288;51.136;16.928;2023-08-07T06:27:08;239.77;;;222.80;;
59474;SDS011;45288;51.136;16.928;2023-08-07T06:29:34;238.27;;;221.50;;
59474;SDS011;45288;51.136;16.928;2023-08-07T06:31:59;237.05;;;220.27;;
59474;SDS011;45288;51.136;16.928;2023-08-07T06:34:25;232.77;;;216.37;;
59474;SDS011;45288;51.136;16.928;2023-08-07T06:36:51;235.15;;;218.10;;
59474;SDS011;45288;51.136;16.928;2023-08-07T06:39:17;213.13;;;198.80;;
59474;SDS011;45288;51.136;16.928;2023-08-07T06:41:43;216.73;;;201.40;;
59474;SDS011;45288;51.136;16.928;2023-08-07T06:44:10;306.17;;;284.65;;
59474;SDS011;45288;51.136;16.928;2023-08-07T06:46:37;483.23;;;446.07;;
59474;SDS011;45288;51.136;16.928;2023-08-07T06:49:03;422.55;;;390.55;;
59474;SDS011;45288;51.136;16.928;2023-08-07T06:51:29;338.20;;;313.83;;
59474;SDS011;45288;51.136;16.928;2023-08-07T06:53:55;286.58;;;266.23;;
59474;SDS011;45288;51.136;16.928;2023-08-07T06:56:20;210.20;;;195.53;;
59474;SDS011;45288;51.136;16.928;2023-08-07T06:58:46;260.73;;;242.07;;
59474;SDS011;45288;51.136;16.928;2023-08-07T07:01:12;265.27;;;246.90;;
59474;SDS011;45288;51.136;16.928;2023-08-07T07:03:38;278.45;;;258.27;;
59474;SDS011;45288;51.136;16.928;2023-08-07T07:06:03;208.03;;;192.97;;
59474;SDS011;45288;51.136;16.928;2023-08-07T07:08:30;177.67;;;165.27;;
59474;SDS011;45288;51.136;16.928;2023-08-07T07:10:55;181.25;;;168.07;;
59474;SDS011;45288;51.136;16.928;2023-08-07T07:13:23;150.52;;;139.18;;
59474;SDS011;45288;51.136;16.928;2023-08-07T07:15:52;171.68;;;158.93;;
59474;SDS011;45288;51.136;16.928;2023-08-07T07:18:18;240.63;;;223.35;;
59474;SDS011;45288;51.136;16.928;2023-08-07T07:20:44;199.50;;;184.97;;
59474;SDS011;45288;51.136;16.928;2023-08-07T07:23:09;190.30;;;177.57;;
59474;SDS011;45288;51.136;16.928;2023-08-07T07:25:35;199.75;;;185.63;;
59474;SDS011;45288;51.136;16.928;2023-08-07T07:28:00;153.57;;;142.40;;
59474;SDS011;45288;51.136;16.928;2023-08-07T07:30:26;152.17;;;141.27;;
59474;SDS011;45288;51.136;16.928;2023-08-07T07:32:52;151.10;;;140.05;;
59474;SDS011;45288;51.136;16.928;2023-08-07T07:35:17;182.90;;;169.63;;
59474;SDS011;45288;51.136;16.928;2023-08-07T07:37:43;131.80;;;122.05;;
59474;SDS011;45288;51.136;16.928;2023-08-07T07:40:09;130.93;;;121.53;;
59474;SDS011;45288;51.136;16.928;2023-08-07T07:42:35;122.83;;;113.97;;
59474;SDS011;45288;51.136;16.928;2023-08-07T07:45:01;144.48;;;134.18;;
59474;SDS011;45288;51.136;16.928;2023-08-07T07:47:27;113.00;;;104.87;;
59474;SDS011;45288;51.136;16.928;2023-08-07T07:50:04;102.20;;;94.15;;
59474;SDS011;45288;51.136;16.928;2023-08-07T07:52:31;47.08;;;42.42;;
59474;SDS011;45288;51.136;16.928;2023-08-07T07:54:57;66.77;;;60.10;;
59474;SDS011;45288;51.136;16.928;2023-08-07T07:57:22;53.87;;;48.70;;
59474;SDS011;45288;51.136;16.928;2023-08-07T07:59:48;39.17;;;16.08;;
59474;SDS011;45288;51.136;16.928;2023-08-07T08:02:14;45.15;;;34.28;;
59474;SDS011;45288;51.136;16.928;2023-08-07T08:04:41;100.88;;;92.93;;
59474;SDS011;45288;51.136;16.928;2023-08-07T08:07:07;100.97;;;92.73;;
59474;SDS011;45288;51.136;16.928;2023-08-07T08:09:33;77.45;;;71.20;;
59474;SDS011;45288;51.136;16.928;2023-08-07T08:11:59;63.78;;;57.72;;
59474;SDS011;45288;51.136;16.928;2023-08-07T08:14:25;62.73;;;57.77;;
59474;SDS011;45288;51.136;16.928;2023-08-07T08:16:51;66.45;;;60.70;;
59474;SDS011;45288;51.136;16.928;2023-08-07T08:19:16;93.53;;;86.57;;
59474;SDS011;45288;51.136;16.928;2023-08-07T08:21:42;67.10;;;60.33;;
59474;SDS011;45288;51.136;16.928;2023-08-07T08:24:08;68.18;;;62.03;;
59474;SDS011;45288;51.136;16.928;2023-08-07T08:26:33;70.07;;;64.35;;
59474;SDS011;45288;51.136;16.928;2023-08-07T08:28:59;72.93;;;66.10;;
59474;SDS011;45288;51.136;16.928;2023-08-07T08:31:25;77.33;;;71.07;;
59474;SDS011;45288;51.136;16.928;2023-08-07T08:33:50;81.22;;;73.60;;
59474;SDS011;45288;51.136;16.928;2023-08-07T08:36:16;81.13;;;74.63;;
59474;SDS011;45288;51.136;16.928;2023-08-07T08:38:42;104.07;;;95.68;;
59474;SDS011;45288;51.136;16.928;2023-08-07T08:41:08;74.32;;;68.43;;
59474;SDS011;45288;51.136;16.928;2023-08-07T08:43:37;76.45;;;70.38;;
59474;SDS011;45288;51.136;16.928;2023-08-07T08:46:06;62.95;;;57.33;;
59474;SDS011;45288;51.136;16.928;2023-08-07T08:48:34;66.47;;;60.87;;
59474;SDS011;45288;51.136;16.928;2023-08-07T08:51:00;63.97;;;57.70;;
59474;SDS011;45288;51.136;16.928;2023-08-07T08:53:27;60.42;;;54.90;;
59474;SDS011;45288;51.136;16.928;2023-08-07T08:55:53;67.47;;;61.47;;
59474;SDS011;45288;51.136;16.928;2023-08-07T08:58:18;67.27;;;61.23;;
59474;SDS011;45288;51.136;16.928;2023-08-07T09:00:45;76.72;;;69.22;;
59474;SDS011;45288;51.136;16.928;2023-08-07T09:03:11;58.50;;;53.58;;
59474;SDS011;45288;51.136;16.928;2023-08-07T09:05:37;64.70;;;58.85;;
59474;SDS011;45288;51.136;16.928;2023-08-07T09:08:03;56.27;;;50.83;;
59474;SDS011;45288;51.136;16.928;2023-08-07T09:10:29;38.72;;;34.55;;
59474;SDS011;45288;51.136;16.928;2023-08-07T09:13:00;45.50;;;40.38;;
59474;SDS011;45288;51.136;16.928;2023-08-07T09:15:26;41.63;;;37.30;;
59474;SDS011;45288;51.136;16.928;2023-08-07T09:17:52;57.50;;;51.85;;
59474;SDS011;45288;51.136;16.928;2023-08-07T09:20:19;45.53;;;41.10;;
59474;SDS011;45288;51.136;16.928;2023-08-07T09:22:46;52.67;;;46.95;;
59474;SDS011;45288;51.136;16.928;2023-08-07T09:25:11;47.07;;;42.93;;
59474;SDS011;45288;51.136;16.928;2023-08-07T09:27:37;63.17;;;57.77;;
59474;SDS011;45288;51.136;16.928;2023-08-07T09:30:04;67.05;;;60.63;;
59474;SDS011;45288;51.136;16.928;2023-08-07T09:32:30;61.83;;;56.35;;
59474;SDS011;45288;51.136;16.928;2023-08-07T09:34:56;39.78;;;24.40;;
59474;SDS011;45288;51.136;16.928;2023-08-07T09:37:23;36.80;;;24.67;;
59474;SDS011;45288;51.136;16.928;2023-08-07T09:39:48;52.90;;;47.60;;
59474;SDS011;45288;51.136;16.928;2023-08-07T09:42:14;57.57;;;52.50;;
59474;SDS011;45288;51.136;16.928;2023-08-07T09:44:43;57.65;;;51.58;;
59474;SDS011;45288;51.136;16.928;2023-08-07T09:47:13;54.53;;;48.90;;
59474;SDS011;45288;51.136;16.928;2023-08-07T09:49:39;60.50;;;54.05;;
59474;SDS011;45288;51.136;16.928;2023-08-07T09:52:06;59.42;;;53.75;;
59474;SDS011;45288;51.136;16.928;2023-08-07T09:54:33;54.00;;;48.97;;
59474;SDS011;45288;51.136;16.928;2023-08-07T09:56:59;64.05;;;47.05;;
59474;SDS011;45288;51.136;16.928;2023-08-07T09:59:26;44.20;;;39.33;;
59474;SDS011;45288;51.136;16.928;2023-08-07T10:01:52;40.25;;;29.58;;
59474;SDS011;45288;51.136;16.928;2023-08-07T10:04:18;49.43;;;29.57;;
59474;SDS011;45288;51.136;16.928;2023-08-07T10:06:43;45.58;;;24.58;;
59474;SDS011;45288;51.136;16.928;2023-08-07T10:09:09;34.90;;;23.50;;
59474;SDS011;45288;51.136;16.928;2023-08-07T10:11:37;34.53;;;20.40;;
59474;SDS011;45288;51.136;16.928;2023-08-07T10:14:03;34.35;;;17.10;;
59474;SDS011;45288;51.136;16.928;2023-08-07T10:16:29;29.67;;;18.80;;
59474;SDS011;45288;51.136;16.928;2023-08-07T10:18:56;34.00;;;19.90;;
59474;SDS011;45288;51.136;16.928;2023-08-07T10:21:21;32.05;;;20.38;;
59474;SDS011;45288;51.136;16.928;2023-08-07T10:23:50;37.20;;;24.27;;
59474;SDS011;45288;51.136;16.928;2023-08-07T10:26:18;33.47;;;17.10;;
59474;SDS011;45288;51.136;16.928;2023-08-07T10:28:44;35.43;;;16.90;;
59474;SDS011;45288;51.136;16.928;2023-08-07T10:31:10;36.17;;;14.65;;
59474;SDS011;45288;51.136;16.928;2023-08-07T10:33:38;32.63;;;10.77;;
59474;SDS011;45288;51.136;16.928;2023-08-07T10:36:07;31.73;;;13.70;;
59474;SDS011;45288;51.136;16.928;2023-08-07T10:38:33;26.33;;;9.48;;
59474;SDS011;45288;51.136;16.928;2023-08-07T10:41:07;33.10;;;12.27;;
59474;SDS011;45288;51.136;16.928;2023-08-07T10:43:40;27.35;;;14.73;;
59474;SDS011;45288;51.136;16.928;2023-08-07T10:46:08;27.02;;;11.88;;
59474;SDS011;45288;51.136;16.928;2023-08-07T10:48:41;26.25;;;12.00;;
59474;SDS011;45288;51.136;16.928;2023-08-07T10:51:07;36.17;;;16.63;;
59474;SDS011;45288;51.136;16.928;2023-08-07T10:56:02;31.67;;;12.57;;
59474;SDS011;45288;51.136;16.928;2023-08-07T10:58:32;25.63;;;9.75;;
59474;SDS011;45288;51.136;16.928;2023-08-07T11:03:55;32.53;;;12.57;;
59474;SDS011;45288;51.136;16.928;2023-08-07T11:06:21;25.38;;;11.10;;
59474;SDS011;45288;51.136;16.928;2023-08-07T11:08:48;29.73;;;11.98;;
59474;SDS011;45288;51.136;16.928;2023-08-07T11:11:13;28.47;;;11.63;;
59474;SDS011;45288;51.136;16.928;2023-08-07T11:13:39;38.13;;;16.00;;
59474;SDS011;45288;51.136;16.928;2023-08-07T11:16:05;28.33;;;13.30;;
59474;SDS011;45288;51.136;16.928;2023-08-07T11:18:31;26.40;;;10.30;;
59474;SDS011;45288;51.136;16.928;2023-08-07T11:20:57;32.05;;;10.30;;
59474;SDS011;45288;51.136;16.928;2023-08-07T11:23:24;26.23;;;9.73;;
59474;SDS011;45288;51.136;16.928;2023-08-07T11:25:50;28.45;;;9.68;;
59474;SDS011;45288;51.136;16.928;2023-08-07T11:28:19;27.33;;;10.37;;
59474;SDS011;45288;51.136;16.928;2023-08-07T11:30:46;33.88;;;10.90;;
59474;SDS011;45288;51.136;16.928;2023-08-07T11:33:13;37.73;;;22.73;;
59474;SDS011;45288;51.136;16.928;2023-08-07T11:35:42;41.63;;;30.25;;
59474;SDS011;45288;51.136;16.928;2023-08-07T11:38:08;63.63;;;58.13;;
59474;SDS011;45288;51.136;16.928;2023-08-07T11:40:34;58.33;;;53.00;;
59474;SDS011;45288;51.136;16.928;2023-08-07T11:43:00;40.05;;;33.13;;
59474;SDS011;45288;51.136;16.928;2023-08-07T11:45:25;36.30;;;30.60;;
59474;SDS011;45288;51.136;16.928;2023-08-07T11:47:51;35.73;;;20.30;;
59474;SDS011;45288;51.136;16.928;2023-08-07T11:50:17;34.07;;;20.70;;
59474;SDS011;45288;51.136;16.928;2023-08-07T11:52:43;32.22;;;15.57;;
59474;SDS011;45288;51.136;16.928;2023-08-07T11:55:09;32.17;;;13.23;;
59474;SDS011;45288;51.136;16.928;2023-08-07T11:57:37;23.10;;;10.95;;
59474;SDS011;45288;51.136;16.928;2023-08-07T12:00:06;32.67;;;12.50;;
59474;SDS011;45288;51.136;16.928;2023-08-07T12:02:35;26.17;;;19.55;;
59474;SDS011;45288;51.136;16.928;2023-08-07T12:05:00;32.97;;;19.58;;
59474;SDS011;45288;51.136;16.928;2023-08-07T12:07:27;31.90;;;10.57;;
59474;SDS011;45288;51.136;16.928;2023-08-07T12:09:52;27.55;;;9.57;;
59474;SDS011;45288;51.136;16.928;2023-08-07T12:12:20;27.20;;;11.23;;
59474;SDS011;45288;51.136;16.928;2023-08-07T12:14:52;33.85;;;11.38;;
59474;SDS011;45288;51.136;16.928;2023-08-07T12:17:17;28.40;;;10.38;;
59474;SDS011;45288;51.136;16.928;2023-08-07T12:19:43;31.67;;;9.53;;
59474;SDS011;45288;51.136;16.928;2023-08-07T12:22:11;27.17;;;9.13;;
59474;SDS011;45288;51.136;16.928;2023-08-07T12:24:37;31.92;;;9.70;;
59474;SDS011;45288;51.136;16.928;2023-08-07T12:27:04;31.13;;;9.20;;
59474;SDS011;45288;51.136;16.928;2023-08-07T12:29:29;29.00;;;8.45;;
59474;SDS011;45288;51.136;16.928;2023-08-07T12:31:55;30.15;;;8.43;;
59474;SDS011;45288;51.136;16.928;2023-08-07T12:34:21;24.83;;;6.93;;
59474;SDS011;45288;51.136;16.928;2023-08-07T12:36:47;27.45;;;7.63;;
59474;SDS011;45288;51.136;16.928;2023-08-07T12:39:12;24.27;;;9.90;;
59474;SDS011;45288;51.136;16.928;2023-08-07T12:41:38;24.50;;;9.60;;
59474;SDS011;45288;51.136;16.928;2023-08-07T12:44:04;25.73;;;9.10;;
59474;SDS011;45288;51.136;16.928;2023-08-07T12:46:29;27.47;;;10.77;;
59474;SDS011;45288;51.136;16.928;2023-08-07T12:48:55;27.73;;;9.57;;
59474;SDS011;45288;51.136;16.928;2023-08-07T12:51:21;26.38;;;8.02;;
59474;SDS011;45288;51.136;16.928;2023-08-07T12:53:46;29.73;;;8.80;;
59474;SDS011;45288;51.136;16.928;2023-08-07T12:56:13;25.38;;;7.80;;
59474;SDS011;45288;51.136;16.928;2023-08-07T12:58:39;28.83;;;10.23;;
59474;SDS011;45288;51.136;16.928;2023-08-07T13:01:04;33.25;;;10.85;;
59474;SDS011;45288;51.136;16.928;2023-08-07T13:03:30;27.00;;;8.75;;
59474;SDS011;45288;51.136;16.928;2023-08-07T13:05:56;27.77;;;9.13;;
59474;SDS011;45288;51.136;16.928;2023-08-07T13:08:22;31.48;;;10.13;;
59474;SDS011;45288;51.136;16.928;2023-08-07T13:10:47;35.90;;;10.50;;
59474;SDS011;45288;51.136;16.928;2023-08-07T13:13:13;29.03;;;11.20;;
59474;SDS011;45288;51.136;16.928;2023-08-07T13:15:39;26.90;;;8.10;;
59474;SDS011;45288;51.136;16.928;2023-08-07T13:18:04;31.57;;;8.57;;
59474;SDS011;45288;51.136;16.928;2023-08-07T13:20:30;20.97;;;7.50;;
59474;SDS011;45288;51.136;16.928;2023-08-07T13:22:59;31.85;;;8.90;;
59474;SDS011;45288;51.136;16.928;2023-08-07T13:25:25;30.05;;;8.88;;
59474;SDS011;45288;51.136;16.928;2023-08-07T13:27:51;27.30;;;9.43;;
59474;SDS011;45288;51.136;16.928;2023-08-07T13:30:16;28.43;;;8.57;;
59474;SDS011;45288;51.136;16.928;2023-08-07T13:32:42;33.67;;;9.63;;
59474;SDS011;45288;51.136;16.928;2023-08-07T13:35:08;29.30;;;8.17;;
59474;SDS011;45288;51.136;16.928;2023-08-07T13:37:34;33.50;;;8.53;;
59474;SDS011;45288;51.136;16.928;2023-08-07T13:40:00;39.95;;;9.95;;
59474;SDS011;45288;51.136;16.928;2023-08-07T13:42:26;29.93;;;7.70;;
59474;SDS011;45288;51.136;16.928;2023-08-07T13:44:53;36.40;;;9.35;;
59474;SDS011;45288;51.136;16.928;2023-08-07T13:47:19;52.30;;;11.50;;
59474;SDS011;45288;51.136;16.928;2023-08-07T13:49:46;55.27;;;30.57;;
59474;SDS011;45288;51.136;16.928;2023-08-07T13:52:13;50.60;;;42.63;;
59474;SDS011;45288;51.136;16.928;2023-08-07T13:54:38;28.70;;;18.60;;
59474;SDS011;45288;51.136;16.928;2023-08-07T13:57:04;32.55;;;19.02;;
59474;SDS011;45288;51.136;16.928;2023-08-07T13:59:30;38.10;;;19.52;;
59474;SDS011;45288;51.136;16.928;2023-08-07T14:01:55;34.43;;;17.77;;